createdAt,value
2023-01-08T00:00:13.309Z,100540.03
2023-01-08T00:02:40.179Z,100544.78
2023-01-08T00:05:07.604Z,100539.25
2023-01-08T00:07:38.389Z,100552.41
2023-01-08T00:10:06.440Z,100547.34
2023-01-08T00:12:33.193Z,100541.19
2023-01-08T00:15:00.092Z,100540.31
2023-01-08T00:17:29.042Z,100534.38
2023-01-08T00:19:55.866Z,100534.38
2023-01-08T00:22:23.760Z,100532.53
2023-01-08T00:24:50.470Z,100527.03
2023-01-08T00:27:17.173Z,100523.72
2023-01-08T00:29:44.354Z,100521.31
2023-01-08T00:32:11.257Z,100517.31
2023-01-08T00:34:39.665Z,100523.84
2023-01-08T00:37:06.385Z,100507.84
2023-01-08T00:39:35.469Z,100508.84
2023-01-08T00:42:04.236Z,100509.31
2023-01-08T00:44:31.036Z,100507.06
2023-01-08T00:46:57.766Z,100504.38
2023-01-08T00:49:25.874Z,100507.34
2023-01-08T00:51:54.385Z,100514.75
2023-01-08T00:54:23.415Z,100510.84
2023-01-08T00:56:51.319Z,100511.97
2023-01-08T00:59:18.131Z,100513.19
2023-01-08T01:01:49.534Z,100508.22
2023-01-08T01:04:16.404Z,100503.12
2023-01-08T01:06:44.301Z,100498.91
2023-01-08T01:09:12.327Z,100510.75
2023-01-08T01:11:39.317Z,100501.91
2023-01-08T01:14:06.091Z,100497.94
2023-01-08T01:16:33.408Z,100499.97
2023-01-08T01:19:00.356Z,100500.03
2023-01-08T01:21:30.795Z,100509.53
2023-01-08T01:23:59.269Z,100503.53
2023-01-08T01:26:27.291Z,100499.75
2023-01-08T01:28:56.868Z,100499.31
2023-01-08T01:31:24.975Z,100492.94
2023-01-08T01:33:52.470Z,100501.19
2023-01-08T01:36:20.233Z,100489.50
2023-01-08T01:38:48.175Z,100488.97
2023-01-08T01:41:25.486Z,100494.63
2023-01-08T01:44:23.504Z,100488.03
2023-01-08T01:47:24.503Z,100490.16
2023-01-08T01:50:14.520Z,100480.84
2023-01-08T01:52:46.136Z,100486.03
2023-01-08T01:55:26.243Z,100477.59
2023-01-08T01:58:08.766Z,100483.41
2023-01-08T02:00:39.836Z,100473.44
2023-01-08T02:03:08.622Z,100475.00
2023-01-08T02:05:55.787Z,100467.34
2023-01-08T02:08:47.637Z,100466.72
2023-01-08T02:11:22.491Z,100466.91
2023-01-08T02:13:54.333Z,100455.78
2023-01-08T02:16:28.169Z,100460.06
2023-01-08T02:19:01.752Z,100454.88
2023-01-08T02:21:31.355Z,100457.25
2023-01-08T02:24:08.413Z,100453.56
2023-01-08T02:26:36.547Z,100451.94
2023-01-08T02:29:15.403Z,100450.81
2023-01-08T02:31:42.889Z,100449.81
2023-01-08T02:34:10.195Z,100449.50
2023-01-08T02:36:53.499Z,100459.66
2023-01-08T02:39:20.168Z,100447.56
2023-01-08T02:41:53.159Z,100453.50
2023-01-08T02:44:26.867Z,100439.22
2023-01-08T02:46:56.359Z,100439.06
2023-01-08T02:49:24.341Z,100431.34
2023-01-08T02:51:54.108Z,100428.56
2023-01-08T02:54:23.738Z,100425.34
2023-01-08T02:56:53.601Z,100416.69
2023-01-08T02:59:24.471Z,100415.59
2023-01-08T03:01:52.384Z,100413.87
2023-01-08T03:04:20.485Z,100415.94
2023-01-08T03:06:48.588Z,100410.00
2023-01-08T03:09:16.288Z,100407.34
2023-01-08T03:11:50.869Z,100411.50
2023-01-08T03:14:23.286Z,100414.44
2023-01-08T03:16:55.939Z,100411.44
2023-01-08T03:19:51.833Z,100402.16
2023-01-08T03:22:19.393Z,100410.56
2023-01-08T03:24:49.503Z,100410.16
2023-01-08T03:27:18.442Z,100413.28
2023-01-08T03:29:46.856Z,100408.97
2023-01-08T03:32:16.249Z,100409.44
2023-01-08T03:34:44.273Z,100406.31
2023-01-08T03:37:11.821Z,100409.03
2023-01-08T03:39:42.242Z,100406.00
2023-01-08T03:42:10.892Z,100407.81
2023-01-08T03:44:37.678Z,100410.09
2023-01-08T03:47:04.986Z,100402.66
2023-01-08T03:49:32.179Z,100390.38
2023-01-08T03:51:58.847Z,100384.78
2023-01-08T03:54:29.854Z,100381.66
2023-01-08T03:56:56.863Z,100383.19
2023-01-08T03:59:23.889Z,100379.41
2023-01-08T04:01:51.042Z,100372.56
2023-01-08T04:04:18.136Z,100384.16
2023-01-08T04:06:44.930Z,100389.44
2023-01-08T04:09:11.595Z,100378.88
2023-01-08T04:11:38.332Z,100373.03
2023-01-08T04:14:05.041Z,100373.16
2023-01-08T04:16:31.950Z,100361.25
2023-01-08T04:18:58.627Z,100362.53
2023-01-08T04:21:25.394Z,100355.63
2023-01-08T04:23:52.093Z,100356.72
2023-01-08T04:26:18.797Z,100354.22
2023-01-08T04:28:45.442Z,100361.59
2023-01-08T04:31:12.234Z,100349.09
2023-01-08T04:33:39.076Z,100353.34
2023-01-08T04:36:06.261Z,100348.19
2023-01-08T04:38:35.065Z,100350.28
2023-01-08T04:41:02.459Z,100349.72
2023-01-08T04:43:30.513Z,100347.12
2023-01-08T04:46:00.882Z,100339.84
2023-01-08T04:48:28.312Z,100343.38
2023-01-08T04:50:55.295Z,100341.22
2023-01-08T04:53:24.934Z,100337.75
2023-01-08T04:55:51.616Z,100341.81
2023-01-08T04:58:18.353Z,100333.38
2023-01-08T05:00:45.052Z,100337.25
2023-01-08T05:03:11.843Z,100344.53
2023-01-08T05:05:38.903Z,100335.25
2023-01-08T05:08:05.640Z,100333.56
2023-01-08T05:10:32.363Z,100326.97
2023-01-08T05:13:01.108Z,100325.06
2023-01-08T05:15:28.233Z,100318.72
2023-01-08T05:17:59.046Z,100309.41
2023-01-08T05:20:26.128Z,100320.12
2023-01-08T05:22:52.907Z,100317.69
2023-01-08T05:25:19.760Z,100326.19
2023-01-08T05:27:47.158Z,100318.63
2023-01-08T05:30:14.024Z,100308.16
2023-01-08T05:32:41.019Z,100310.75
2023-01-08T05:35:08.063Z,100317.78
2023-01-08T05:37:37.260Z,100313.12
2023-01-08T05:40:04.432Z,100309.47
2023-01-08T05:42:31.163Z,100312.44
2023-01-08T05:44:57.886Z,100315.72
2023-01-08T05:47:24.569Z,100302.41
2023-01-08T05:49:51.378Z,100311.00
2023-01-08T05:52:18.108Z,100307.69
2023-01-08T05:54:45.032Z,100309.28
2023-01-08T05:57:11.795Z,100313.28
2023-01-08T05:59:38.517Z,100307.22
2023-01-08T06:02:05.273Z,100303.16
2023-01-08T06:04:32.033Z,100303.78
2023-01-08T06:06:58.720Z,100298.06
2023-01-08T06:09:25.467Z,100292.66
2023-01-08T06:11:53.331Z,100295.81
2023-01-08T06:14:20.079Z,100296.97
2023-01-08T06:16:46.847Z,100302.22
2023-01-08T06:19:13.591Z,100292.28
2023-01-08T06:21:40.391Z,100295.94
2023-01-08T06:24:07.115Z,100295.50
2023-01-08T06:26:33.782Z,100289.22
2023-01-08T06:29:00.748Z,100288.00
2023-01-08T06:31:27.523Z,100290.41
2023-01-08T06:33:54.234Z,100285.16
2023-01-08T06:36:21.209Z,100287.63
2023-01-08T06:38:48.081Z,100288.63
2023-01-08T06:41:14.883Z,100286.31
2023-01-08T06:43:43.793Z,100284.78
2023-01-08T06:46:10.686Z,100282.69
2023-01-08T06:48:37.796Z,100288.66
2023-01-08T06:51:05.320Z,100288.19
2023-01-08T06:53:36.136Z,100282.41
2023-01-08T06:56:04.028Z,100284.59
2023-01-08T06:58:30.861Z,100288.25
2023-01-08T07:00:59.136Z,100287.00
2023-01-08T07:03:27.868Z,100288.28
2023-01-08T07:05:55.039Z,100282.16
2023-01-08T07:08:21.767Z,100283.44
2023-01-08T07:10:48.777Z,100284.03
2023-01-08T07:13:15.770Z,100277.56
2023-01-08T07:15:42.892Z,100276.91
2023-01-08T07:18:10.785Z,100276.19
2023-01-08T07:20:37.776Z,100275.00
2023-01-08T07:23:05.648Z,100283.75
2023-01-08T07:25:32.842Z,100277.00
2023-01-08T07:28:02.330Z,100270.13
2023-01-08T07:30:30.649Z,100272.13
2023-01-08T07:33:03.422Z,100264.53
2023-01-08T07:35:30.447Z,100267.22
2023-01-08T07:37:57.189Z,100263.87
2023-01-08T07:40:24.008Z,100254.25
2023-01-08T07:43:00.249Z,100253.31
2023-01-08T07:45:27.743Z,100248.84
2023-01-08T07:47:54.559Z,100240.16
2023-01-08T07:50:21.292Z,100248.84
2023-01-08T07:52:48.753Z,100241.72
2023-01-08T07:55:15.734Z,100237.44
2023-01-08T07:57:42.558Z,100238.06
2023-01-08T08:00:09.730Z,100224.84
2023-01-08T08:02:36.683Z,100231.53
2023-01-08T08:05:03.632Z,100231.75
2023-01-08T08:07:33.602Z,100229.28
2023-01-08T08:10:00.480Z,100226.56
2023-01-08T08:12:27.367Z,100218.81
2023-01-08T08:14:54.036Z,100207.59
2023-01-08T08:17:20.959Z,100213.75
2023-01-08T08:19:47.692Z,100213.50
2023-01-08T08:22:14.476Z,100201.88
2023-01-08T08:24:41.346Z,100203.66
2023-01-08T08:27:08.148Z,100188.94
2023-01-08T08:29:34.960Z,100195.72
2023-01-08T08:32:01.718Z,100191.19
2023-01-08T08:34:28.414Z,100196.78
2023-01-08T08:36:55.139Z,100187.72
2023-01-08T08:39:21.931Z,100188.75
2023-01-08T08:41:48.768Z,100182.59
2023-01-08T08:44:15.490Z,100181.75
2023-01-08T08:46:43.313Z,100182.94
2023-01-08T08:49:10.093Z,100172.69
2023-01-08T08:51:39.675Z,100174.34
2023-01-08T08:54:06.371Z,100177.59
2023-01-08T08:56:33.117Z,100157.81
2023-01-08T08:58:59.839Z,100160.22
2023-01-08T09:01:26.599Z,100154.41
2023-01-08T09:03:53.431Z,100153.00
2023-01-08T09:06:20.126Z,100159.88
2023-01-08T09:08:46.790Z,100158.41
2023-01-08T09:11:14.541Z,100155.75
2023-01-08T09:13:41.508Z,100138.97
2023-01-08T09:16:08.388Z,100140.94
2023-01-08T09:18:35.138Z,100138.34
2023-01-08T09:21:06.160Z,100132.00
2023-01-08T09:23:33.439Z,100122.69
2023-01-08T09:26:01.148Z,100122.75
2023-01-08T09:28:27.905Z,100122.19
2023-01-08T09:30:54.708Z,100117.00
2023-01-08T09:33:21.473Z,100122.03
2023-01-08T09:35:50.712Z,100111.44
2023-01-08T09:38:17.532Z,100119.28
2023-01-08T09:40:47.970Z,100106.34
2023-01-08T09:43:19.709Z,100106.34
2023-01-08T09:45:50.253Z,100093.31
2023-01-08T09:48:18.219Z,100089.22
2023-01-08T09:50:45.165Z,100090.63
2023-01-08T09:53:14.245Z,100083.59
2023-01-08T09:55:41.486Z,100082.47
2023-01-08T09:58:27.035Z,100081.88
2023-01-08T10:00:54.481Z,100071.69
2023-01-08T10:03:23.182Z,100068.97
2023-01-08T10:05:51.735Z,100057.87
2023-01-08T10:08:18.801Z,100053.13
2023-01-08T10:10:46.830Z,100058.56
2023-01-08T10:13:14.363Z,100040.56
2023-01-08T10:15:44.215Z,100044.53
2023-01-08T10:18:12.450Z,100040.87
2023-01-08T10:20:39.599Z,100040.56
2023-01-08T10:23:14.187Z,100034.50
2023-01-08T10:25:48.975Z,100020.13
2023-01-08T10:28:23.142Z,100023.06
2023-01-08T10:30:50.921Z,100021.47
2023-01-08T10:33:25.161Z,100022.78
2023-01-08T10:35:54.048Z,100010.84
2023-01-08T10:38:26.810Z,100014.00
2023-01-08T10:40:53.652Z,100005.66
2023-01-08T10:43:21.391Z,100002.19
2023-01-08T10:46:00.681Z,100000.37
2023-01-08T10:48:32.889Z,99996.50
2023-01-08T10:51:18.762Z,100007.91
2023-01-08T10:53:45.639Z,99997.75
2023-01-08T10:56:20.116Z,99989.34
2023-01-08T10:58:46.997Z,99981.06
2023-01-08T11:01:32.371Z,99986.22
2023-01-08T11:04:01.411Z,99986.22
2023-01-08T11:06:31.833Z,99978.16
2023-01-08T11:09:00.483Z,99975.41
2023-01-08T11:11:34.546Z,99960.34
2023-01-08T11:14:04.454Z,99963.37
2023-01-08T11:16:32.214Z,99953.69
2023-01-08T11:18:58.920Z,99955.00
2023-01-08T11:21:27.276Z,99947.31
2023-01-08T11:24:23.310Z,99937.56
2023-01-08T11:27:10.238Z,99933.81
2023-01-08T11:29:55.940Z,99927.59
2023-01-08T11:32:40.470Z,99921.78
2023-01-08T11:35:25.967Z,99914.03
2023-01-08T11:37:54.142Z,99917.09
2023-01-08T11:40:30.109Z,99912.28
2023-01-08T11:43:15.298Z,99904.53
2023-01-08T11:45:57.526Z,99907.63
2023-01-08T11:48:24.275Z,99902.22
2023-01-08T11:51:05.053Z,99903.47
2023-01-08T11:53:37.756Z,99903.81
2023-01-08T11:56:04.609Z,99891.03
2023-01-08T11:58:50.265Z,99889.31
2023-01-08T12:01:26.217Z,99885.03
2023-01-08T12:03:52.950Z,99885.63
2023-01-08T12:06:27.823Z,99884.78
2023-01-08T12:08:57.631Z,99881.59
2023-01-08T12:11:28.169Z,99879.44
2023-01-08T12:14:14.392Z,99871.03
2023-01-08T12:16:41.135Z,99868.62
2023-01-08T12:19:26.456Z,99866.81
2023-01-08T12:22:08.333Z,99870.66
2023-01-08T12:24:50.271Z,99885.25
2023-01-08T12:27:20.468Z,99874.19
2023-01-08T12:29:48.409Z,99874.69
2023-01-08T12:32:38.236Z,99878.13
2023-01-08T12:35:15.378Z,99872.25
2023-01-08T12:37:45.748Z,99872.69
2023-01-08T12:40:14.762Z,99879.37
2023-01-08T12:42:50.288Z,99876.63
2023-01-08T12:45:27.392Z,99867.59
2023-01-08T12:48:00.738Z,99871.47
2023-01-08T12:50:45.183Z,99869.22
2023-01-08T12:53:11.901Z,99866.22
2023-01-08T12:55:48.176Z,99858.53
2023-01-08T12:58:15.038Z,99857.66
2023-01-08T13:00:44.764Z,99861.47
2023-01-08T13:03:15.159Z,99850.25
2023-01-08T13:05:43.797Z,99854.97
2023-01-08T13:08:29.517Z,99840.97
2023-01-08T13:10:56.998Z,99844.12
2023-01-08T13:13:29.710Z,99836.31
2023-01-08T13:16:11.624Z,99836.47
2023-01-08T13:18:38.950Z,99837.69
2023-01-08T13:21:06.429Z,99830.50
2023-01-08T13:23:35.341Z,99836.81
2023-01-08T13:26:06.397Z,99833.84
2023-01-08T13:28:42.730Z,99833.66
2023-01-08T13:31:21.495Z,99827.41
2023-01-08T13:33:49.423Z,99828.63
2023-01-08T13:36:19.586Z,99823.56
2023-01-08T13:38:46.382Z,99824.50
2023-01-08T13:41:27.007Z,99824.16
2023-01-08T13:44:14.035Z,99835.16
2023-01-08T13:46:41.136Z,99828.44
2023-01-08T13:49:12.001Z,99824.03
2023-01-08T13:51:46.222Z,99826.91
2023-01-08T13:54:13.156Z,99827.19
2023-01-08T13:56:48.540Z,99827.16
2023-01-08T13:59:24.636Z,99826.91
2023-01-08T14:01:57.716Z,99834.34
2023-01-08T14:04:24.930Z,99828.56
2023-01-08T14:06:51.825Z,99829.44
2023-01-08T14:09:25.635Z,99834.94
2023-01-08T14:11:58.215Z,99838.25
2023-01-08T14:14:25.041Z,99833.53
2023-01-08T14:16:53.372Z,99837.88
2023-01-08T14:19:25.126Z,99833.87
2023-01-08T14:21:54.341Z,99844.59
2023-01-08T14:24:22.571Z,99846.19
2023-01-08T14:26:53.664Z,99841.47
2023-01-08T14:29:21.529Z,99854.22
2023-01-08T14:31:55.053Z,99848.16
2023-01-08T14:34:23.103Z,99853.91
2023-01-08T14:36:51.797Z,99851.47
2023-01-08T14:39:26.132Z,99863.69
2023-01-08T14:42:13.373Z,99863.56
2023-01-08T14:44:42.341Z,99859.47
2023-01-08T14:47:20.114Z,99861.59
2023-01-08T14:49:56.082Z,99849.22
2023-01-08T14:52:23.059Z,99856.00
2023-01-08T14:54:51.979Z,99858.34
2023-01-08T14:57:19.328Z,99866.38
2023-01-08T14:59:52.289Z,99862.56
2023-01-08T15:02:23.885Z,99861.94
2023-01-08T15:05:00.611Z,99850.13
2023-01-08T15:07:27.868Z,99849.84
2023-01-08T15:09:59.187Z,99864.66
2023-01-08T15:12:27.318Z,99862.91
2023-01-08T15:14:55.505Z,99859.31
2023-01-08T15:17:24.153Z,99863.50
2023-01-08T15:19:56.052Z,99877.75
2023-01-08T15:22:26.272Z,99853.16
2023-01-08T15:25:00.710Z,99875.75
2023-01-08T15:27:28.176Z,99869.66
2023-01-08T15:30:04.195Z,99864.66
2023-01-08T15:32:34.878Z,99861.63
2023-01-08T15:35:01.928Z,99866.75
2023-01-08T15:37:30.557Z,99865.06
2023-01-08T15:39:57.361Z,99865.84
2023-01-08T15:42:51.001Z,99868.81
2023-01-08T15:45:21.015Z,99876.84
2023-01-08T15:47:47.940Z,99868.12
2023-01-08T15:50:14.814Z,99860.78
2023-01-08T15:52:43.050Z,99871.53
2023-01-08T15:55:16.018Z,99866.72
2023-01-08T15:57:43.005Z,99867.41
2023-01-08T16:00:12.140Z,99857.91
2023-01-08T16:02:44.910Z,99864.66
2023-01-08T16:05:13.324Z,99859.13
2023-01-08T16:07:40.114Z,99862.31
2023-01-08T16:10:07.112Z,99862.41
2023-01-08T16:12:33.794Z,99860.34
2023-01-08T16:15:00.546Z,99861.28
2023-01-08T16:17:29.997Z,99858.19
2023-01-08T16:19:56.649Z,99859.41
2023-01-08T16:22:23.368Z,99867.44
2023-01-08T16:24:50.053Z,99860.56
2023-01-08T16:27:16.931Z,99853.50
2023-01-08T16:29:45.526Z,99869.84
2023-01-08T16:32:12.350Z,99864.91
2023-01-08T16:34:39.091Z,99867.53
2023-01-08T16:37:05.898Z,99861.22
2023-01-08T16:39:32.702Z,99864.84
2023-01-08T16:42:03.177Z,99869.56
2023-01-08T16:44:29.988Z,99872.75
2023-01-08T16:46:56.952Z,99874.66
2023-01-08T16:49:23.694Z,99873.88
2023-01-08T16:51:50.921Z,99867.25
2023-01-08T16:54:17.723Z,99873.69
2023-01-08T16:56:47.161Z,99872.97
2023-01-08T16:59:22.673Z,99869.66
2023-01-08T17:01:49.830Z,99876.03
2023-01-08T17:04:16.657Z,99864.94
2023-01-08T17:06:43.315Z,99867.69
2023-01-08T17:09:11.619Z,99873.47
2023-01-08T17:11:38.764Z,99872.94
2023-01-08T17:14:05.520Z,99883.53
2023-01-08T17:16:32.403Z,99874.81
2023-01-08T17:19:00.729Z,99869.94
2023-01-08T17:21:27.455Z,99872.88
2023-01-08T17:23:54.189Z,99872.50
2023-01-08T17:26:21.008Z,99872.44
2023-01-08T17:28:47.840Z,99867.00
2023-01-08T17:31:16.163Z,99873.38
2023-01-08T17:33:43.941Z,99861.53
2023-01-08T17:36:14.718Z,99860.62
2023-01-08T17:38:43.039Z,99870.81
2023-01-08T17:41:12.377Z,99872.97
2023-01-08T17:43:39.147Z,99862.56
2023-01-08T17:46:07.191Z,99865.06
2023-01-08T17:48:34.503Z,99870.28
2023-01-08T17:51:06.441Z,99871.87
2023-01-08T17:53:34.119Z,99877.75
2023-01-08T17:56:05.225Z,99872.72
2023-01-08T17:58:31.851Z,99873.84
2023-01-08T18:00:58.550Z,99878.69
2023-01-08T18:03:25.298Z,99880.53
2023-01-08T18:05:51.960Z,99878.63
2023-01-08T18:08:18.814Z,99881.41
2023-01-08T18:10:45.633Z,99880.63
2023-01-08T18:13:12.278Z,99884.91
2023-01-08T18:15:38.966Z,99883.91
2023-01-08T18:18:05.840Z,99876.22
2023-01-08T18:20:32.596Z,99877.84
2023-01-08T18:22:59.406Z,99875.16
2023-01-08T18:25:26.116Z,99885.50
2023-01-08T18:27:53.029Z,99879.59
2023-01-08T18:30:19.944Z,99888.19
2023-01-08T18:32:46.638Z,99883.91
2023-01-08T18:35:15.275Z,99887.94
2023-01-08T18:37:42.110Z,99887.19
2023-01-08T18:40:09.165Z,99892.41
2023-01-08T18:42:36.001Z,99895.09
2023-01-08T18:45:04.333Z,99885.13
2023-01-08T18:47:30.982Z,99879.59
2023-01-08T18:50:00.087Z,99889.75
2023-01-08T18:52:26.810Z,99886.06
2023-01-08T18:54:53.786Z,99879.94
2023-01-08T18:57:20.629Z,99880.00
2023-01-08T18:59:49.178Z,99871.66
2023-01-08T19:02:31.000Z,99873.47
2023-01-08T19:04:57.686Z,99882.28
2023-01-08T19:07:24.455Z,99878.44
2023-01-08T19:09:51.143Z,99866.28
2023-01-08T19:12:17.812Z,99874.22
2023-01-08T19:14:46.389Z,99869.88
2023-01-08T19:17:13.839Z,99863.31
2023-01-08T19:19:40.561Z,99866.16
2023-01-08T19:22:07.480Z,99868.12
2023-01-08T19:24:36.455Z,99864.47
2023-01-08T19:27:03.819Z,99866.97
2023-01-08T19:29:30.481Z,99865.59
2023-01-08T19:31:57.281Z,99864.37
2023-01-08T19:34:24.329Z,99865.69
2023-01-08T19:36:51.131Z,99871.25
2023-01-08T19:39:20.635Z,99874.00
2023-01-08T19:42:06.016Z,99871.37
2023-01-08T19:44:32.799Z,99869.06
2023-01-08T19:46:59.437Z,99858.78
2023-01-08T19:49:26.249Z,99863.72
2023-01-08T19:51:53.134Z,99856.22
2023-01-08T19:54:29.096Z,99857.59
2023-01-08T19:56:56.054Z,99865.09
2023-01-08T19:59:22.797Z,99858.00
2023-01-08T20:01:49.591Z,99861.63
2023-01-08T20:04:16.290Z,99852.47
2023-01-08T20:06:43.063Z,99868.41
2023-01-08T20:09:09.937Z,99864.06
2023-01-08T20:11:36.821Z,99868.34
2023-01-08T20:14:05.674Z,99865.50
2023-01-08T20:16:32.451Z,99863.47
2023-01-08T20:19:03.587Z,99867.88
2023-01-08T20:21:31.537Z,99869.56
2023-01-08T20:23:59.816Z,99864.31
2023-01-08T20:26:27.604Z,99865.59
2023-01-08T20:28:55.250Z,99857.50
2023-01-08T20:31:22.961Z,99853.59
2023-01-08T20:33:49.838Z,99840.97
2023-01-08T20:36:18.187Z,99844.28
2023-01-08T20:38:45.438Z,99836.19
2023-01-08T20:41:12.565Z,99828.09
2023-01-08T20:43:40.277Z,99830.09
2023-01-08T20:46:09.902Z,99821.13
2023-01-08T20:48:42.909Z,99824.78
2023-01-08T20:51:12.458Z,99813.50
2023-01-08T20:53:39.857Z,99801.66
2023-01-08T20:56:08.192Z,99812.44
2023-01-08T20:58:37.048Z,99804.66
2023-01-08T21:01:05.460Z,99795.25
2023-01-08T21:03:34.590Z,99799.97
2023-01-08T21:06:11.244Z,99800.66
2023-01-08T21:08:38.028Z,99798.13
2023-01-08T21:11:05.871Z,99788.50
2023-01-08T21:13:33.675Z,99793.63
2023-01-08T21:16:02.235Z,99788.97
2023-01-08T21:18:29.449Z,99774.84
2023-01-08T21:21:00.441Z,99774.88
2023-01-08T21:23:30.433Z,99774.03
2023-01-08T21:25:58.266Z,99764.63
2023-01-08T21:28:26.021Z,99765.97
2023-01-08T21:30:53.309Z,99764.84
2023-01-08T21:33:20.464Z,99762.34
2023-01-08T21:35:50.969Z,99754.00
2023-01-08T21:38:19.416Z,99754.47
2023-01-08T21:40:46.191Z,99748.91
2023-01-08T21:43:31.490Z,99750.94
2023-01-08T21:46:01.715Z,99754.88
2023-01-08T21:48:29.376Z,99748.97
2023-01-08T21:50:56.127Z,99746.25
2023-01-08T21:53:31.884Z,99744.16
2023-01-08T21:56:02.306Z,99746.34
2023-01-08T21:58:29.660Z,99741.31
2023-01-08T22:00:56.468Z,99741.16
2023-01-08T22:03:23.569Z,99739.84
2023-01-08T22:05:59.460Z,99733.19
2023-01-08T22:08:28.262Z,99735.56
2023-01-08T22:10:55.374Z,99731.78
2023-01-08T22:13:22.035Z,99727.66
2023-01-08T22:15:48.737Z,99723.94
2023-01-08T22:18:15.872Z,99721.72
2023-01-08T22:20:48.049Z,99735.03
2023-01-08T22:23:14.868Z,99728.72
2023-01-08T22:25:41.554Z,99722.25
2023-01-08T22:28:09.423Z,99720.63
2023-01-08T22:30:37.608Z,99715.19
2023-01-08T22:33:04.392Z,99708.28
2023-01-08T22:35:31.167Z,99703.97
2023-01-08T22:37:57.856Z,99696.28
2023-01-08T22:40:24.688Z,99698.22
2023-01-08T22:42:51.366Z,99687.69
2023-01-08T22:45:18.109Z,99695.63
2023-01-08T22:47:45.052Z,99689.88
2023-01-08T22:50:13.307Z,99688.00
2023-01-08T22:52:40.147Z,99687.19
2023-01-08T22:55:07.063Z,99680.72
2023-01-08T22:57:34.001Z,99680.59
2023-01-08T23:00:00.652Z,99679.63
2023-01-08T23:02:27.360Z,99673.09
2023-01-08T23:04:54.535Z,99677.88
2023-01-08T23:07:21.516Z,99684.97
2023-01-08T23:09:48.323Z,99666.16
2023-01-08T23:12:15.200Z,99673.03
2023-01-08T23:14:42.257Z,99660.50
2023-01-08T23:17:09.547Z,99667.13
2023-01-08T23:19:36.850Z,99658.22
2023-01-08T23:22:03.761Z,99660.06
2023-01-08T23:24:33.275Z,99662.56
2023-01-08T23:26:59.952Z,99659.06
2023-01-08T23:29:31.491Z,99653.38
2023-01-08T23:31:58.307Z,99654.41
2023-01-08T23:34:25.271Z,99653.81
2023-01-08T23:36:52.141Z,99661.56
2023-01-08T23:39:18.951Z,99656.84
2023-01-08T23:41:45.656Z,99655.84
2023-01-08T23:44:13.221Z,99649.03
2023-01-08T23:46:39.944Z,99651.34
2023-01-08T23:49:10.166Z,99649.16
2023-01-08T23:51:37.674Z,99645.75
2023-01-08T23:54:04.327Z,99648.94
2023-01-08T23:56:32.000Z,99644.72
2023-01-08T23:58:59.226Z,99646.16
